Bitflower — SBJE — position and weather

sailwx.info

Track history (hours):
 
Tides and Currents Weather Stations Pressure Air Temp Water Temp Dewpoint Dewpoint Depression Visibility Wind Speed Wind Dir Waves Ship Positions

Bitflower

Last reported at 2017-Jul-29 11:30 UTC. Time now 2017-Jul-29 11:57 UTC.
Position N 51°28' E 001°21'.

Length 116 m; draft 5.2 m.

Type: Ship. MMSI: 266009000.

Date/timePositionNaut miles runAvg speedWind from/ knotsBaromVisibWave heightAir tempDewpointWater temp
2017-Jul-29 11:30N 51°28' E 001°21'612.2
2017-Jul-29 11:00N 51°26' E 001°30'4 8.8
2017-Jul-29 10:30N 51°23' E 001°35'4 8.7
2017-Jul-29 10:00N 51°19' E 001°39'5 9.5
2017-Jul-29 09:30N 51°14' E 001°38'5 9.7
2017-Jul-29 09:01N 51°10' E 001°36'510.2
2017-Jul-29 08:30N 51°05' E 001°38'611.7
2017-Jul-29 08:00N 51°00' E 001°32'612.0
2017-Jul-29 07:30N 50°55' E 001°27'713.8
2017-Jul-29 07:00N 50°48' E 001°24'6313.3
2017-Jul-29 02:17N 50°20' W 000°05'12515.0
2017-Jul-28 17:56N 49°50' W 003°14'512.5
2017-Jul-28 17:30N 49°50' W 003°22'612.5
2017-Jul-28 17:00N 49°50' W 003°32'612.6
2017-Jul-28 16:30N 49°50' W 003°42'612.5
2017-Jul-28 16:00N 49°50' W 003°52'612.6
2017-Jul-28 15:30N 49°50' W 004°01'260 9.8
2017-Jul-27 12:52N 54°05' W 005°21'712.8
2017-Jul-27 12:20N 54°12' W 005°20'413.0
2017-Jul-27 12:00N 54°16' W 005°19'713.4
2017-Jul-27 11:31N 54°23' W 005°17'714.0
2017-Jul-27 11:00N 54°30' W 005°20'715.0
2017-Jul-27 10:31N 54°37' W 005°24'714.4
2017-Jul-27 10:00N 54°43' W 005°32'713.9
2017-Jul-27 09:30N 54°42' W 005°44'611.5
2017-Jul-27 09:00N 54°39' W 005°52'2 2.1
2017-Jul-27 08:05N 54°37' W 005°53'0 0.0
2017-Jul-27 07:52N 54°37' W 005°53'0 0.0
2017-Jul-27 07:28N 54°37' W 005°53'0 0.0
2017-Jul-27 06:56N 54°37' W 005°53'0 0.0
2017-Jul-27 06:28N 54°37' W 005°53'0 0.0
2017-Jul-27 05:56N 54°37' W 005°53'0 0.0
2017-Jul-27 05:28N 54°37' W 005°53'0 0.0
2017-Jul-27 04:58N 54°37' W 005°53'0 0.0
2017-Jul-27 04:28N 54°37' W 005°53'0 0.0
2017-Jul-27 03:52N 54°37' W 005°53'0 0.0
2017-Jul-27 03:28N 54°37' W 005°53'0 0.0
2017-Jul-27 02:50N 54°37' W 005°53'0 0.0
2017-Jul-27 02:25N 54°37' W 005°53'0 0.0
2017-Jul-27 01:55N 54°37' W 005°53'0 0.0
2017-Jul-27 01:22N 54°37' W 005°53'0 0.0
2017-Jul-27 00:56N 54°37' W 005°53'0 0.0
2017-Jul-27 00:28N 54°37' W 005°53'0 0.0
2017-Jul-26 23:58N 54°37' W 005°53'0 0.0
2017-Jul-26 23:28N 54°37' W 005°53'0 0.0
2017-Jul-26 22:49N 54°37' W 005°53'0 0.0
2017-Jul-26 22:25N 54°37' W 005°53'0 0.0
2017-Jul-26 21:55N 54°37' W 005°53'0 0.0
2017-Jul-26 21:16N 54°37' W 005°53'0 0.0
2017-Jul-26 20:52N 54°37' W 005°53'0 0.0
2017-Jul-26 20:25N 54°37' W 005°53'0 0.0
2017-Jul-26 19:40N 54°37' W 005°53'0 0.0
2017-Jul-26 19:16N 54°37' W 005°53'0 0.0
2017-Jul-26 18:55N 54°37' W 005°53'0 0.0
2017-Jul-26 18:29N 54°37' W 005°53'0 0.0
2017-Jul-26 17:55N 54°37' W 005°53'0 0.0
2017-Jul-26 17:28N 54°37' W 005°53'0 0.0
2017-Jul-26 16:55N 54°37' W 005°53'0 0.0
2017-Jul-26 16:28N 54°37' W 005°53'0 0.0
2017-Jul-26 15:58N 54°37' W 005°53'0 0.0
2017-Jul-26 15:28N 54°37' W 005°53'0 0.0
2017-Jul-26 14:58N 54°37' W 005°53'0 0.0
2017-Jul-26 13:51N 54°37' W 005°53'0 0.9
2017-Jul-26 13:29N 54°37' W 005°53'2 4.0
2017-Jul-26 13:00N 54°39' W 005°52'510.1
2017-Jul-26 12:31N 54°42' W 005°45'5 9.7
2017-Jul-26 12:00N 54°43' W 005°37'5 9.7
2017-Jul-26 11:31N 54°43' W 005°28'4 8.7
2017-Jul-26 11:01N 54°39' W 005°25'4 8.9
2017-Jul-26 10:31N 54°35' W 005°22'5 9.2
2017-Jul-26 10:01N 54°31' W 005°19'5 9.3
2017-Jul-26 09:30N 54°27' W 005°15'5 9.3
2017-Jul-26 09:01N 54°22' W 005°12'5 9.3
2017-Jul-26 08:30N 54°18' W 005°09'5 9.4
2017-Jul-26 08:00N 54°14' W 005°06'5212.9
2017-Jul-26 03:57N 53°40' W 003°58'614.3
2017-Jul-26 03:30N 53°36' W 003°49'1113.7
2017-Jul-26 02:40N 53°34' W 003°30'214.0
2017-Jul-26 02:30N 53°33' W 003°26'713.6
2017-Jul-26 02:00N 53°31' W 003°15'611.1
2017-Jul-26 01:30N 53°31' W 003°06'612.1
2017-Jul-26 01:00N 53°25' W 003°01'510.4
2017-Jul-26 00:30N 53°21' W 002°58'1 2.9
2017-Jul-26 00:01N 53°19' W 002°57'0 0.0
2017-Jul-25 23:31N 53°19' W 002°57'0 0.4
2017-Jul-25 23:00N 53°19' W 002°57'0 0.0
2017-Jul-25 22:22N 53°19' W 002°57'0 0.0
2017-Jul-25 21:52N 53°19' W 002°57'0 0.0
2017-Jul-25 21:16N 53°19' W 002°57'0 0.0
2017-Jul-25 20:55N 53°19' W 002°57'0 0.0
2017-Jul-25 20:28N 53°19' W 002°57'0 0.0
2017-Jul-25 19:58N 53°19' W 002°57'0 0.0
2017-Jul-25 19:28N 53°19' W 002°57'0 0.0
2017-Jul-25 18:10N 53°19' W 002°57'0 0.0
2017-Jul-25 17:55N 53°19' W 002°57'0 0.0
2017-Jul-25 17:28N 53°19' W 002°57'0 0.0
2017-Jul-25 16:46N 53°19' W 002°57'0 0.0
2017-Jul-25 16:22N 53°19' W 002°57'0 0.0
2017-Jul-25 15:58N 53°19' W 002°57'0 0.0
2017-Jul-25 15:28N 53°19' W 002°57'0 0.0
2017-Jul-25 14:58N 53°19' W 002°57'0 0.0
2017-Jul-25 13:58N 53°19' W 002°57'0 0.0
2017-Jul-25 12:34N 53°19' W 002°57'0 0.0
2017-Jul-25 12:28N 53°19' W 002°57'0 0.0
2017-Jul-25 11:52N 53°19' W 002°57'0 0.0
2017-Jul-25 11:10N 53°19' W 002°57'0 0.0
2017-Jul-25 10:58N 53°19' W 002°57'0 0.0
2017-Jul-25 10:28N 53°19' W 002°57'0 0.0
2017-Jul-25 09:16N 53°19' W 002°57'0 0.0
2017-Jul-25 08:58N 53°19' W 002°57'0 0.0
2017-Jul-25 08:28N 53°19' W 002°57'0 0.0
2017-Jul-25 07:58N 53°19' W 002°57'0 0.0
2017-Jul-25 07:28N 53°19' W 002°57'0 0.0
2017-Jul-25 06:58N 53°19' W 002°57'0 0.0
2017-Jul-25 06:28N 53°19' W 002°57'0 0.0
2017-Jul-25 05:58N 53°19' W 002°57'0 0.0
2017-Jul-25 05:28N 53°19' W 002°57'0 0.0
2017-Jul-25 04:58N 53°19' W 002°57'0 0.0
2017-Jul-25 04:28N 53°19' W 002°57'0 0.0
2017-Jul-25 03:55N 53°19' W 002°57'0 0.0
2017-Jul-25 03:16N 53°19' W 002°57'0 0.0
2017-Jul-25 02:58N 53°19' W 002°57'0 0.0
2017-Jul-25 02:28N 53°19' W 002°57'0 0.0
2017-Jul-25 01:58N 53°19' W 002°57'0 0.0
2017-Jul-25 01:22N 53°19' W 002°57'0 0.0
2017-Jul-25 00:46N 53°19' W 002°57'0 0.0
2017-Jul-25 00:28N 53°19' W 002°57'0 0.0
2017-Jul-24 23:58N 53°19' W 002°57'0 0.0
2017-Jul-24 23:22N 53°19' W 002°57'0 0.0
2017-Jul-24 22:52N 53°19' W 002°57'0 0.0
2017-Jul-24 22:28N 53°19' W 002°57'0 0.0
2017-Jul-24 21:58N 53°19' W 002°57'0 0.0
2017-Jul-24 21:28N 53°19' W 002°57'0 0.0
2017-Jul-24 20:58N 53°19' W 002°57'0 0.0
2017-Jul-24 20:22N 53°19' W 002°57'0 0.0
2017-Jul-24 19:58N 53°19' W 002°57'0 0.0
2017-Jul-24 19:28N 53°19' W 002°57'0 0.0
2017-Jul-24 18:52N 53°19' W 002°57'0 0.0
2017-Jul-24 18:28N 53°19' W 002°57'0 0.0
2017-Jul-24 17:58N 53°19' W 002°57'0 0.0
2017-Jul-24 17:28N 53°19' W 002°57'0 0.0
2017-Jul-24 16:46N 53°19' W 002°57'0 0.0
2017-Jul-24 16:28N 53°19' W 002°57'0 0.0
2017-Jul-24 15:49N 53°19' W 002°57'0 0.0
2017-Jul-24 12:58N 53°19' W 002°57'0 0.0
2017-Jul-24 12:30N 53°19' W 002°57'0 0.5
2017-Jul-24 12:00N 53°19' W 002°57'1 1.6
2017-Jul-24 11:30N 53°20' W 002°57'4 6.9
2017-Jul-24 10:59N 53°23' W 003°00'611.7
2017-Jul-24 10:30N 53°28' W 003°04'510.3
2017-Jul-24 10:00N 53°31' W 003°11'611.2
2017-Jul-24 09:31N 53°31' W 003°21'2 3.0
2017-Jul-24 09:00N 53°31' W 003°23'2 3.1
2017-Jul-24 08:30N 53°31' W 003°26'2 3.6
2017-Jul-24 08:00N 53°31' W 003°29'2 4.1
2017-Jul-24 07:30N 53°30' W 003°32'2 4.1
2017-Jul-24 07:00N 53°31' W 003°36'2 3.9
2017-Jul-24 06:31N 53°31' W 003°39'2 3.9
2017-Jul-24 06:00N 53°31' W 003°42'3 6.9
2017-Jul-24 05:30N 53°31' W 003°48'3 7.0
2017-Jul-24 05:01N 53°31' W 003°54'4 6.9
2017-Jul-24 04:27N 53°31' W 004°00'73 6.4
2017-Jul-23 17:00N 53°21' W 006°01'5 9.1
2017-Jul-23 16:29N 53°21' W 006°09'2 2.4
2017-Jul-23 15:42N 53°21' W 006°12'0 0.0
2017-Jul-23 11:58N 53°21' W 006°12'0 0.0
2017-Jul-23 10:10N 53°21' W 006°12'0 0.0
2017-Jul-23 09:42N 53°21' W 006°12'0 0.0
2017-Jul-23 09:10N 53°21' W 006°12'0 0.0
2017-Jul-23 08:54N 53°21' W 006°12'0 0.0
2017-Jul-23 08:30N 53°21' W 006°12'0 0.0
2017-Jul-23 06:48N 53°21' W 006°12'0 0.0
2017-Jul-23 03:24N 53°21' W 006°12'0 0.0
2017-Jul-23 01:42N 53°21' W 006°12'0 0.0
2017-Jul-23 01:06N 53°21' W 006°12'0 0.0
2017-Jul-22 20:30N 53°21' W 006°12'0 0.0
2017-Jul-22 18:42N 53°21' W 006°12'0 0.0
2017-Jul-22 18:21N 53°21' W 006°12'0 0.0
2017-Jul-22 15:57N 53°21' W 006°12'4 0.8
2017-Jul-22 11:08N 53°20' W 006°06'312.0
2017-Jul-22 10:56N 53°19' W 006°03'4 9.1
2017-Jul-22 10:28N 53°15' W 005°60'16812.3
2017-Jul-21 20:50N 50°27' W 005°53'  
Track history (hours):
 
Tides and Currents Weather Stations Pressure Air Temp Water Temp Dewpoint Dewpoint Depression Visibility Wind Speed Wind Dir Waves Ship Positions

Bitflower

Last reported at 2017-Jul-29 11:30 UTC. Time now 2017-Jul-29 11:57 UTC.
Position N 51°28' E 001°21'.

Length 116 m; draft 5.2 m.

Type: Ship. MMSI: 266009000.

Date/timePositionNaut miles runAvg speedWind from/ knotsBaromVisibWave heightAir tempDewpointWater temp
2017-Jul-29 11:30N 51°28' E 001°21'612.2
2017-Jul-29 11:00N 51°26' E 001°30'4 8.8
2017-Jul-29 10:30N 51°23' E 001°35'4 8.7
2017-Jul-29 10:00N 51°19' E 001°39'5 9.5
2017-Jul-29 09:30N 51°14' E 001°38'5 9.7
2017-Jul-29 09:01N 51°10' E 001°36'510.2
2017-Jul-29 08:30N 51°05' E 001°38'611.7
2017-Jul-29 08:00N 51°00' E 001°32'612.0
2017-Jul-29 07:30N 50°55' E 001°27'713.8
2017-Jul-29 07:00N 50°48' E 001°24'6313.3
2017-Jul-29 02:17N 50°20' W 000°05'12515.0
2017-Jul-28 17:56N 49°50' W 003°14'512.5
2017-Jul-28 17:30N 49°50' W 003°22'612.5
2017-Jul-28 17:00N 49°50' W 003°32'612.6
2017-Jul-28 16:30N 49°50' W 003°42'612.5
2017-Jul-28 16:00N 49°50' W 003°52'612.6
2017-Jul-28 15:30N 49°50' W 004°01'260 9.8
2017-Jul-27 12:52N 54°05' W 005°21'712.8
2017-Jul-27 12:20N 54°12' W 005°20'413.0
2017-Jul-27 12:00N 54°16' W 005°19'713.4
2017-Jul-27 11:31N 54°23' W 005°17'714.0
2017-Jul-27 11:00N 54°30' W 005°20'715.0
2017-Jul-27 10:31N 54°37' W 005°24'714.4
2017-Jul-27 10:00N 54°43' W 005°32'713.9
2017-Jul-27 09:30N 54°42' W 005°44'611.5
2017-Jul-27 09:00N 54°39' W 005°52'2 2.1
2017-Jul-27 08:05N 54°37' W 005°53'0 0.0
2017-Jul-27 07:52N 54°37' W 005°53'0 0.0
2017-Jul-27 07:28N 54°37' W 005°53'0 0.0
2017-Jul-27 06:56N 54°37' W 005°53'0 0.0
2017-Jul-27 06:28N 54°37' W 005°53'0 0.0
2017-Jul-27 05:56N 54°37' W 005°53'0 0.0
2017-Jul-27 05:28N 54°37' W 005°53'0 0.0
2017-Jul-27 04:58N 54°37' W 005°53'0 0.0
2017-Jul-27 04:28N 54°37' W 005°53'0 0.0
2017-Jul-27 03:52N 54°37' W 005°53'0 0.0
2017-Jul-27 03:28N 54°37' W 005°53'0 0.0
2017-Jul-27 02:50N 54°37' W 005°53'0 0.0
2017-Jul-27 02:25N 54°37' W 005°53'0 0.0
2017-Jul-27 01:55N 54°37' W 005°53'0 0.0
2017-Jul-27 01:22N 54°37' W 005°53'0 0.0
2017-Jul-27 00:56N 54°37' W 005°53'0 0.0
2017-Jul-27 00:28N 54°37' W 005°53'0 0.0
2017-Jul-26 23:58N 54°37' W 005°53'0 0.0
2017-Jul-26 23:28N 54°37' W 005°53'0 0.0
2017-Jul-26 22:49N 54°37' W 005°53'0 0.0
2017-Jul-26 22:25N 54°37' W 005°53'0 0.0
2017-Jul-26 21:55N 54°37' W 005°53'0 0.0
2017-Jul-26 21:16N 54°37' W 005°53'0 0.0
2017-Jul-26 20:52N 54°37' W 005°53'0 0.0
2017-Jul-26 20:25N 54°37' W 005°53'0 0.0
2017-Jul-26 19:40N 54°37' W 005°53'0 0.0
2017-Jul-26 19:16N 54°37' W 005°53'0 0.0
2017-Jul-26 18:55N 54°37' W 005°53'0 0.0
2017-Jul-26 18:29N 54°37' W 005°53'0 0.0
2017-Jul-26 17:55N 54°37' W 005°53'0 0.0
2017-Jul-26 17:28N 54°37' W 005°53'0 0.0
2017-Jul-26 16:55N 54°37' W 005°53'0 0.0
2017-Jul-26 16:28N 54°37' W 005°53'0 0.0
2017-Jul-26 15:58N 54°37' W 005°53'0 0.0
2017-Jul-26 15:28N 54°37' W 005°53'0 0.0
2017-Jul-26 14:58N 54°37' W 005°53'0 0.0
2017-Jul-26 13:51N 54°37' W 005°53'0 0.9
2017-Jul-26 13:29N 54°37' W 005°53'2 4.0
2017-Jul-26 13:00N 54°39' W 005°52'510.1
2017-Jul-26 12:31N 54°42' W 005°45'5 9.7
2017-Jul-26 12:00N 54°43' W 005°37'5 9.7
2017-Jul-26 11:31N 54°43' W 005°28'4 8.7
2017-Jul-26 11:01N 54°39' W 005°25'4 8.9
2017-Jul-26 10:31N 54°35' W 005°22'5 9.2
2017-Jul-26 10:01N 54°31' W 005°19'5 9.3
2017-Jul-26 09:30N 54°27' W 005°15'5 9.3
2017-Jul-26 09:01N 54°22' W 005°12'5 9.3
2017-Jul-26 08:30N 54°18' W 005°09'5 9.4
2017-Jul-26 08:00N 54°14' W 005°06'5212.9
2017-Jul-26 03:57N 53°40' W 003°58'614.3
2017-Jul-26 03:30N 53°36' W 003°49'1113.7
2017-Jul-26 02:40N 53°34' W 003°30'214.0
2017-Jul-26 02:30N 53°33' W 003°26'713.6
2017-Jul-26 02:00N 53°31' W 003°15'611.1
2017-Jul-26 01:30N 53°31' W 003°06'612.1
2017-Jul-26 01:00N 53°25' W 003°01'510.4
2017-Jul-26 00:30N 53°21' W 002°58'1 2.9
2017-Jul-26 00:01N 53°19' W 002°57'0 0.0
2017-Jul-25 23:31N 53°19' W 002°57'0 0.4
2017-Jul-25 23:00N 53°19' W 002°57'0 0.0
2017-Jul-25 22:22N 53°19' W 002°57'0 0.0
2017-Jul-25 21:52N 53°19' W 002°57'0 0.0
2017-Jul-25 21:16N 53°19' W 002°57'0 0.0
2017-Jul-25 20:55N 53°19' W 002°57'0 0.0
2017-Jul-25 20:28N 53°19' W 002°57'0 0.0
2017-Jul-25 19:58N 53°19' W 002°57'0 0.0
2017-Jul-25 19:28N 53°19' W 002°57'0 0.0
2017-Jul-25 18:10N 53°19' W 002°57'0 0.0
2017-Jul-25 17:55N 53°19' W 002°57'0 0.0
2017-Jul-25 17:28N 53°19' W 002°57'0 0.0
2017-Jul-25 16:46N 53°19' W 002°57'0 0.0
2017-Jul-25 16:22N 53°19' W 002°57'0 0.0
2017-Jul-25 15:58N 53°19' W 002°57'0 0.0
2017-Jul-25 15:28N 53°19' W 002°57'0 0.0
2017-Jul-25 14:58N 53°19' W 002°57'0 0.0
2017-Jul-25 13:58N 53°19' W 002°57'0 0.0
2017-Jul-25 12:34N 53°19' W 002°57'0 0.0
2017-Jul-25 12:28N 53°19' W 002°57'0 0.0
2017-Jul-25 11:52N 53°19' W 002°57'0 0.0
2017-Jul-25 11:10N 53°19' W 002°57'0 0.0
2017-Jul-25 10:58N 53°19' W 002°57'0 0.0
2017-Jul-25 10:28N 53°19' W 002°57'0 0.0
2017-Jul-25 09:16N 53°19' W 002°57'0 0.0
2017-Jul-25 08:58N 53°19' W 002°57'0 0.0
2017-Jul-25 08:28N 53°19' W 002°57'0 0.0
2017-Jul-25 07:58N 53°19' W 002°57'0 0.0
2017-Jul-25 07:28N 53°19' W 002°57'0 0.0
2017-Jul-25 06:58N 53°19' W 002°57'0 0.0
2017-Jul-25 06:28N 53°19' W 002°57'0 0.0
2017-Jul-25 05:58N 53°19' W 002°57'0 0.0
2017-Jul-25 05:28N 53°19' W 002°57'0 0.0
2017-Jul-25 04:58N 53°19' W 002°57'0 0.0
2017-Jul-25 04:28N 53°19' W 002°57'0 0.0
2017-Jul-25 03:55N 53°19' W 002°57'0 0.0
2017-Jul-25 03:16N 53°19' W 002°57'0 0.0
2017-Jul-25 02:58N 53°19' W 002°57'0 0.0
2017-Jul-25 02:28N 53°19' W 002°57'0 0.0
2017-Jul-25 01:58N 53°19' W 002°57'0 0.0
2017-Jul-25 01:22N 53°19' W 002°57'0 0.0
2017-Jul-25 00:46N 53°19' W 002°57'0 0.0
2017-Jul-25 00:28N 53°19' W 002°57'0 0.0
2017-Jul-24 23:58N 53°19' W 002°57'0 0.0
2017-Jul-24 23:22N 53°19' W 002°57'0 0.0
2017-Jul-24 22:52N 53°19' W 002°57'0 0.0
2017-Jul-24 22:28N 53°19' W 002°57'0 0.0
2017-Jul-24 21:58N 53°19' W 002°57'0 0.0
2017-Jul-24 21:28N 53°19' W 002°57'0 0.0
2017-Jul-24 20:58N 53°19' W 002°57'0 0.0
2017-Jul-24 20:22N 53°19' W 002°57'0 0.0
2017-Jul-24 19:58N 53°19' W 002°57'0 0.0
2017-Jul-24 19:28N 53°19' W 002°57'0 0.0
2017-Jul-24 18:52N 53°19' W 002°57'0 0.0
2017-Jul-24 18:28N 53°19' W 002°57'0 0.0
2017-Jul-24 17:58N 53°19' W 002°57'0 0.0
2017-Jul-24 17:28N 53°19' W 002°57'0 0.0
2017-Jul-24 16:46N 53°19' W 002°57'0 0.0
2017-Jul-24 16:28N 53°19' W 002°57'0 0.0
2017-Jul-24 15:49N 53°19' W 002°57'0 0.0
2017-Jul-24 12:58N 53°19' W 002°57'0 0.0
2017-Jul-24 12:30N 53°19' W 002°57'0 0.5
2017-Jul-24 12:00N 53°19' W 002°57'1 1.6
2017-Jul-24 11:30N 53°20' W 002°57'4 6.9
2017-Jul-24 10:59N 53°23' W 003°00'611.7
2017-Jul-24 10:30N 53°28' W 003°04'510.3
2017-Jul-24 10:00N 53°31' W 003°11'611.2
2017-Jul-24 09:31N 53°31' W 003°21'2 3.0
2017-Jul-24 09:00N 53°31' W 003°23'2 3.1
2017-Jul-24 08:30N 53°31' W 003°26'2 3.6
2017-Jul-24 08:00N 53°31' W 003°29'2 4.1
2017-Jul-24 07:30N 53°30' W 003°32'2 4.1
2017-Jul-24 07:00N 53°31' W 003°36'2 3.9
2017-Jul-24 06:31N 53°31' W 003°39'2 3.9
2017-Jul-24 06:00N 53°31' W 003°42'3 6.9
2017-Jul-24 05:30N 53°31' W 003°48'3 7.0
2017-Jul-24 05:01N 53°31' W 003°54'4 6.9
2017-Jul-24 04:27N 53°31' W 004°00'73 6.4
2017-Jul-23 17:00N 53°21' W 006°01'5 9.1
2017-Jul-23 16:29N 53°21' W 006°09'2 2.4
2017-Jul-23 15:42N 53°21' W 006°12'0 0.0
2017-Jul-23 11:58N 53°21' W 006°12'0 0.0
2017-Jul-23 10:10N 53°21' W 006°12'0 0.0
2017-Jul-23 09:42N 53°21' W 006°12'0 0.0
2017-Jul-23 09:10N 53°21' W 006°12'0 0.0
2017-Jul-23 08:54N 53°21' W 006°12'0 0.0
2017-Jul-23 08:30N 53°21' W 006°12'0 0.0
2017-Jul-23 06:48N 53°21' W 006°12'0 0.0
2017-Jul-23 03:24N 53°21' W 006°12'0 0.0
2017-Jul-23 01:42N 53°21' W 006°12'0 0.0
2017-Jul-23 01:06N 53°21' W 006°12'0 0.0
2017-Jul-22 20:30N 53°21' W 006°12'0 0.0
2017-Jul-22 18:42N 53°21' W 006°12'0 0.0
2017-Jul-22 18:21N 53°21' W 006°12'0 0.0
2017-Jul-22 15:57N 53°21' W 006°12'4 0.8
2017-Jul-22 11:08N 53°20' W 006°06'312.0
2017-Jul-22 10:56N 53°19' W 006°03'4 9.1
2017-Jul-22 10:28N 53°15' W 005°60'16812.3
2017-Jul-21 20:50N 50°27' W 005°53'  

Dump ship's entire track history